sensor_id;sensor_type;location;lat;lon;timestamp;temperature;humidity
23100;DHT22;53791;50.696;4.396;2023-07-02T00:02:06;17.10;99.90
23100;DHT22;53791;50.696;4.396;2023-07-02T00:04:33;17.00;99.90
23100;DHT22;53791;50.696;4.396;2023-07-02T00:07:01;17.10;99.90
23100;DHT22;53791;50.696;4.396;2023-07-02T00:09:34;17.10;99.90
23100;DHT22;53791;50.696;4.396;2023-07-02T00:12:02;17.00;99.90
23100;DHT22;53791;50.696;4.396;2023-07-02T00:14:31;17.00;99.90
23100;DHT22;53791;50.696;4.396;2023-07-02T00:16:59;17.10;99.90
23100;DHT22;53791;50.696;4.396;2023-07-02T00:19:27;17.00;99.90
23100;DHT22;53791;50.696;4.396;2023-07-02T00:21:55;17.00;99.90
23100;DHT22;53791;50.696;4.396;2023-07-02T00:24:23;17.00;99.90
23100;DHT22;53791;50.696;4.396;2023-07-02T00:26:50;16.90;99.90
23100;DHT22;53791;50.696;4.396;2023-07-02T00:29:18;16.90;99.90
23100;DHT22;53791;50.696;4.396;2023-07-02T00:31:45;16.90;99.90
23100;DHT22;53791;50.696;4.396;2023-07-02T00:34:13;17.00;99.90
23100;DHT22;53791;50.696;4.396;2023-07-02T00:36:40;16.90;99.90
23100;DHT22;53791;50.696;4.396;2023-07-02T00:39:08;16.90;99.90
23100;DHT22;53791;50.696;4.396;2023-07-02T00:41:36;16.90;99.90
23100;DHT22;53791;50.696;4.396;2023-07-02T00:44:03;16.90;99.90
23100;DHT22;53791;50.696;4.396;2023-07-02T00:46:31;16.90;99.90
23100;DHT22;53791;50.696;4.396;2023-07-02T00:48:59;16.80;99.90
23100;DHT22;53791;50.696;4.396;2023-07-02T00:51:30;16.70;99.90
23100;DHT22;53791;50.696;4.396;2023-07-02T00:53:58;16.70;99.90
23100;DHT22;53791;50.696;4.396;2023-07-02T00:56:26;16.70;99.90
23100;DHT22;53791;50.696;4.396;2023-07-02T00:58:54;16.70;99.90
23100;DHT22;53791;50.696;4.396;2023-07-02T01:01:26;16.70;99.90
23100;DHT22;53791;50.696;4.396;2023-07-02T01:04:02;16.70;99.90
23100;DHT22;53791;50.696;4.396;2023-07-02T01:06:33;16.60;99.90
23100;DHT22;53791;50.696;4.396;2023-07-02T01:09:04;16.60;99.90
23100;DHT22;53791;50.696;4.396;2023-07-02T01:11:34;16.60;99.90
23100;DHT22;53791;50.696;4.396;2023-07-02T01:14:08;16.60;99.90
23100;DHT22;53791;50.696;4.396;2023-07-02T01:16:33;16.60;99.90
23100;DHT22;53791;50.696;4.396;2023-07-02T01:19:03;16.60;99.90
23100;DHT22;53791;50.696;4.396;2023-07-02T01:21:32;16.60;99.90
23100;DHT22;53791;50.696;4.396;2023-07-02T01:24:05;16.60;99.90
23100;DHT22;53791;50.696;4.396;2023-07-02T01:26:33;16.60;99.90
23100;DHT22;53791;50.696;4.396;2023-07-02T01:29:19;16.60;99.90
23100;DHT22;53791;50.696;4.396;2023-07-02T01:31:47;16.50;99.90
23100;DHT22;53791;50.696;4.396;2023-07-02T01:34:15;16.50;99.90
23100;DHT22;53791;50.696;4.396;2023-07-02T01:36:42;16.50;99.90
23100;DHT22;53791;50.696;4.396;2023-07-02T01:39:10;16.40;99.90
23100;DHT22;53791;50.696;4.396;2023-07-02T01:41:43;16.50;99.90
23100;DHT22;53791;50.696;4.396;2023-07-02T01:44:12;16.50;99.90
23100;DHT22;53791;50.696;4.396;2023-07-02T01:46:39;16.60;99.90
23100;DHT22;53791;50.696;4.396;2023-07-02T01:49:07;16.50;99.90
23100;DHT22;53791;50.696;4.396;2023-07-02T01:51:36;16.50;99.90
23100;DHT22;53791;50.696;4.396;2023-07-02T01:54:04;16.50;99.90
23100;DHT22;53791;50.696;4.396;2023-07-02T01:56:32;16.50;99.90
23100;DHT22;53791;50.696;4.396;2023-07-02T01:58:59;16.40;99.90
23100;DHT22;53791;50.696;4.396;2023-07-02T02:01:28;16.40;99.90
23100;DHT22;53791;50.696;4.396;2023-07-02T02:03:55;16.40;99.90
23100;DHT22;53791;50.696;4.396;2023-07-02T02:06:23;16.50;99.90
23100;DHT22;53791;50.696;4.396;2023-07-02T02:08:50;16.50;99.90
23100;DHT22;53791;50.696;4.396;2023-07-02T02:11:18;16.60;99.90
23100;DHT22;53791;50.696;4.396;2023-07-02T02:13:45;16.50;99.90
23100;DHT22;53791;50.696;4.396;2023-07-02T02:16:15;16.50;99.90
23100;DHT22;53791;50.696;4.396;2023-07-02T02:18:42;16.50;99.90
23100;DHT22;53791;50.696;4.396;2023-07-02T02:21:10;16.60;99.90
23100;DHT22;53791;50.696;4.396;2023-07-02T02:23:37;16.50;99.90
23100;DHT22;53791;50.696;4.396;2023-07-02T02:26:07;16.50;99.90
23100;DHT22;53791;50.696;4.396;2023-07-02T02:28:34;16.60;99.90
23100;DHT22;53791;50.696;4.396;2023-07-02T02:31:02;16.50;99.90
23100;DHT22;53791;50.696;4.396;2023-07-02T02:33:30;16.40;99.90
23100;DHT22;53791;50.696;4.396;2023-07-02T02:35:57;16.50;99.90
23100;DHT22;53791;50.696;4.396;2023-07-02T02:38:25;16.50;99.90
23100;DHT22;53791;50.696;4.396;2023-07-02T02:40:52;16.50;99.90
23100;DHT22;53791;50.696;4.396;2023-07-02T02:43:20;16.40;99.90
23100;DHT22;53791;50.696;4.396;2023-07-02T02:45:49;16.40;99.90
23100;DHT22;53791;50.696;4.396;2023-07-02T02:48:16;16.40;99.90
23100;DHT22;53791;50.696;4.396;2023-07-02T02:50:45;16.40;99.90
23100;DHT22;53791;50.696;4.396;2023-07-02T02:53:14;16.40;99.90
23100;DHT22;53791;50.696;4.396;2023-07-02T02:55:43;16.40;99.90
23100;DHT22;53791;50.696;4.396;2023-07-02T02:58:12;16.40;99.90
23100;DHT22;53791;50.696;4.396;2023-07-02T03:00:40;16.40;99.90
23100;DHT22;53791;50.696;4.396;2023-07-02T03:03:09;16.40;99.90
23100;DHT22;53791;50.696;4.396;2023-07-02T03:05:36;16.50;99.90
23100;DHT22;53791;50.696;4.396;2023-07-02T03:08:05;16.50;99.90
23100;DHT22;53791;50.696;4.396;2023-07-02T03:10:33;16.40;99.90
23100;DHT22;53791;50.696;4.396;2023-07-02T03:13:00;16.40;99.90
23100;DHT22;53791;50.696;4.396;2023-07-02T03:15:28;16.40;99.90
23100;DHT22;53791;50.696;4.396;2023-07-02T03:17:57;16.40;99.90
23100;DHT22;53791;50.696;4.396;2023-07-02T03:20:24;16.40;99.90
23100;DHT22;53791;50.696;4.396;2023-07-02T03:22:52;16.40;99.90
23100;DHT22;53791;50.696;4.396;2023-07-02T03:25:19;16.40;99.90
23100;DHT22;53791;50.696;4.396;2023-07-02T03:27:47;16.40;99.90
23100;DHT22;53791;50.696;4.396;2023-07-02T03:30:14;16.30;99.90
23100;DHT22;53791;50.696;4.396;2023-07-02T03:32:42;16.30;99.90
23100;DHT22;53791;50.696;4.396;2023-07-02T03:35:09;16.30;99.90
23100;DHT22;53791;50.696;4.396;2023-07-02T03:37:37;16.30;99.90
23100;DHT22;53791;50.696;4.396;2023-07-02T03:40:05;16.30;99.90
23100;DHT22;53791;50.696;4.396;2023-07-02T03:42:33;16.40;99.90
23100;DHT22;53791;50.696;4.396;2023-07-02T03:45:00;16.30;99.90
23100;DHT22;53791;50.696;4.396;2023-07-02T03:47:28;16.30;99.90
23100;DHT22;53791;50.696;4.396;2023-07-02T03:49:55;16.30;99.90
23100;DHT22;53791;50.696;4.396;2023-07-02T03:52:23;16.30;99.90
23100;DHT22;53791;50.696;4.396;2023-07-02T03:54:50;16.30;99.90
23100;DHT22;53791;50.696;4.396;2023-07-02T03:57:18;16.30;99.90
23100;DHT22;53791;50.696;4.396;2023-07-02T03:59:46;16.30;99.90
23100;DHT22;53791;50.696;4.396;2023-07-02T04:02:14;16.30;99.90
23100;DHT22;53791;50.696;4.396;2023-07-02T04:04:41;16.40;99.90
23100;DHT22;53791;50.696;4.396;2023-07-02T04:07:09;16.30;99.90
23100;DHT22;53791;50.696;4.396;2023-07-02T04:09:39;16.30;99.90
23100;DHT22;53791;50.696;4.396;2023-07-02T04:12:08;16.30;99.90
23100;DHT22;53791;50.696;4.396;2023-07-02T04:14:36;16.30;99.90
23100;DHT22;53791;50.696;4.396;2023-07-02T04:17:08;16.30;99.90
23100;DHT22;53791;50.696;4.396;2023-07-02T04:19:37;16.20;99.90
23100;DHT22;53791;50.696;4.396;2023-07-02T04:22:05;16.20;99.90
23100;DHT22;53791;50.696;4.396;2023-07-02T04:24:32;16.20;99.90
23100;DHT22;53791;50.696;4.396;2023-07-02T04:27:00;16.30;99.90
23100;DHT22;53791;50.696;4.396;2023-07-02T04:29:28;16.30;99.90
23100;DHT22;53791;50.696;4.396;2023-07-02T04:31:57;16.30;99.90
23100;DHT22;53791;50.696;4.396;2023-07-02T04:34:24;16.30;99.90
23100;DHT22;53791;50.696;4.396;2023-07-02T04:36:52;16.30;99.90
23100;DHT22;53791;50.696;4.396;2023-07-02T04:39:20;16.30;99.90
23100;DHT22;53791;50.696;4.396;2023-07-02T04:41:48;16.30;99.90
23100;DHT22;53791;50.696;4.396;2023-07-02T04:44:17;16.30;99.90
23100;DHT22;53791;50.696;4.396;2023-07-02T04:46:47;16.30;99.90
23100;DHT22;53791;50.696;4.396;2023-07-02T04:49:17;16.20;99.90
23100;DHT22;53791;50.696;4.396;2023-07-02T04:51:45;16.20;99.90
23100;DHT22;53791;50.696;4.396;2023-07-02T04:54:17;16.20;99.90
23100;DHT22;53791;50.696;4.396;2023-07-02T04:56:44;16.30;99.90
23100;DHT22;53791;50.696;4.396;2023-07-02T04:59:12;16.30;99.90
23100;DHT22;53791;50.696;4.396;2023-07-02T05:01:40;16.30;99.90
23100;DHT22;53791;50.696;4.396;2023-07-02T05:04:12;16.30;99.90
23100;DHT22;53791;50.696;4.396;2023-07-02T05:06:39;16.40;99.90
23100;DHT22;53791;50.696;4.396;2023-07-02T05:09:07;16.40;99.90
23100;DHT22;53791;50.696;4.396;2023-07-02T05:11:34;16.40;99.90
23100;DHT22;53791;50.696;4.396;2023-07-02T05:14:02;16.40;99.90
23100;DHT22;53791;50.696;4.396;2023-07-02T05:16:30;16.40;99.90
23100;DHT22;53791;50.696;4.396;2023-07-02T05:18:57;16.40;99.90
23100;DHT22;53791;50.696;4.396;2023-07-02T05:21:25;16.50;99.90
23100;DHT22;53791;50.696;4.396;2023-07-02T05:23:52;16.50;99.90
23100;DHT22;53791;50.696;4.396;2023-07-02T05:26:20;16.50;99.90
23100;DHT22;53791;50.696;4.396;2023-07-02T05:28:47;16.70;99.90
23100;DHT22;53791;50.696;4.396;2023-07-02T05:31:16;16.50;99.90
23100;DHT22;53791;50.696;4.396;2023-07-02T05:33:44;16.60;99.90
23100;DHT22;53791;50.696;4.396;2023-07-02T05:36:11;16.60;99.90
23100;DHT22;53791;50.696;4.396;2023-07-02T05:38:39;16.60;99.90
23100;DHT22;53791;50.696;4.396;2023-07-02T05:41:07;16.70;99.90
23100;DHT22;53791;50.696;4.396;2023-07-02T05:43:34;16.80;99.90
23100;DHT22;53791;50.696;4.396;2023-07-02T05:46:02;16.80;99.90
23100;DHT22;53791;50.696;4.396;2023-07-02T05:48:29;16.80;99.90
23100;DHT22;53791;50.696;4.396;2023-07-02T05:50:57;16.90;99.90
23100;DHT22;53791;50.696;4.396;2023-07-02T05:53:24;16.90;99.90
23100;DHT22;53791;50.696;4.396;2023-07-02T05:55:52;16.90;99.90
23100;DHT22;53791;50.696;4.396;2023-07-02T05:58:19;17.00;99.90
23100;DHT22;53791;50.696;4.396;2023-07-02T06:00:47;17.00;99.90
23100;DHT22;53791;50.696;4.396;2023-07-02T06:03:16;17.10;99.90
23100;DHT22;53791;50.696;4.396;2023-07-02T06:05:49;17.30;99.90
23100;DHT22;53791;50.696;4.396;2023-07-02T06:08:17;17.30;99.90
23100;DHT22;53791;50.696;4.396;2023-07-02T06:10:48;17.30;99.90
23100;DHT22;53791;50.696;4.396;2023-07-02T06:13:15;17.20;99.90
23100;DHT22;53791;50.696;4.396;2023-07-02T06:15:43;17.30;99.90
23100;DHT22;53791;50.696;4.396;2023-07-02T06:18:13;17.40;99.90
23100;DHT22;53791;50.696;4.396;2023-07-02T06:20:40;17.40;99.90
23100;DHT22;53791;50.696;4.396;2023-07-02T06:23:08;17.40;99.90
23100;DHT22;53791;50.696;4.396;2023-07-02T06:25:35;17.50;99.90
23100;DHT22;53791;50.696;4.396;2023-07-02T06:28:03;17.40;99.90
23100;DHT22;53791;50.696;4.396;2023-07-02T06:30:31;17.40;99.90
23100;DHT22;53791;50.696;4.396;2023-07-02T06:32:58;17.50;99.90
23100;DHT22;53791;50.696;4.396;2023-07-02T06:35:26;17.50;99.90
23100;DHT22;53791;50.696;4.396;2023-07-02T06:37:53;17.50;99.90
23100;DHT22;53791;50.696;4.396;2023-07-02T06:40:21;17.60;99.90
23100;DHT22;53791;50.696;4.396;2023-07-02T06:42:51;17.70;99.90
23100;DHT22;53791;50.696;4.396;2023-07-02T06:45:19;17.80;99.90
23100;DHT22;53791;50.696;4.396;2023-07-02T06:47:46;17.80;99.90
23100;DHT22;53791;50.696;4.396;2023-07-02T06:50:14;17.80;99.90
23100;DHT22;53791;50.696;4.396;2023-07-02T06:52:41;17.80;99.90
23100;DHT22;53791;50.696;4.396;2023-07-02T06:55:09;17.80;99.90
23100;DHT22;53791;50.696;4.396;2023-07-02T06:57:44;17.80;99.90
23100;DHT22;53791;50.696;4.396;2023-07-02T07:00:13;17.90;99.90
23100;DHT22;53791;50.696;4.396;2023-07-02T07:02:41;18.00;99.90
23100;DHT22;53791;50.696;4.396;2023-07-02T07:05:08;18.20;99.90
23100;DHT22;53791;50.696;4.396;2023-07-02T07:07:36;18.30;99.90
23100;DHT22;53791;50.696;4.396;2023-07-02T07:10:04;18.30;99.90
23100;DHT22;53791;50.696;4.396;2023-07-02T07:12:32;18.40;99.90
23100;DHT22;53791;50.696;4.396;2023-07-02T07:15:00;18.40;99.90
23100;DHT22;53791;50.696;4.396;2023-07-02T07:17:27;18.40;99.90
23100;DHT22;53791;50.696;4.396;2023-07-02T07:19:55;18.30;99.90
23100;DHT22;53791;50.696;4.396;2023-07-02T07:22:22;18.30;99.90
23100;DHT22;53791;50.696;4.396;2023-07-02T07:24:50;18.30;99.90
23100;DHT22;53791;50.696;4.396;2023-07-02T07:27:17;18.40;99.90
23100;DHT22;53791;50.696;4.396;2023-07-02T07:29:45;18.40;99.90
23100;DHT22;53791;50.696;4.396;2023-07-02T07:32:12;18.50;99.90
23100;DHT22;53791;50.696;4.396;2023-07-02T07:34:40;18.60;99.90
23100;DHT22;53791;50.696;4.396;2023-07-02T07:37:07;18.70;99.90
23100;DHT22;53791;50.696;4.396;2023-07-02T07:39:36;18.80;99.90
23100;DHT22;53791;50.696;4.396;2023-07-02T07:42:03;18.90;99.90
23100;DHT22;53791;50.696;4.396;2023-07-02T07:44:31;19.00;99.90
23100;DHT22;53791;50.696;4.396;2023-07-02T07:46:58;19.10;99.90
23100;DHT22;53791;50.696;4.396;2023-07-02T07:49:26;19.30;99.90
23100;DHT22;53791;50.696;4.396;2023-07-02T07:51:53;19.30;99.90
23100;DHT22;53791;50.696;4.396;2023-07-02T07:54:21;19.40;99.90
23100;DHT22;53791;50.696;4.396;2023-07-02T07:56:48;19.40;99.90
23100;DHT22;53791;50.696;4.396;2023-07-02T07:59:16;19.40;99.90
23100;DHT22;53791;50.696;4.396;2023-07-02T08:01:43;19.50;99.90
23100;DHT22;53791;50.696;4.396;2023-07-02T08:04:13;19.70;99.90
23100;DHT22;53791;50.696;4.396;2023-07-02T08:06:40;19.70;99.90
23100;DHT22;53791;50.696;4.396;2023-07-02T08:09:07;19.70;99.90
23100;DHT22;53791;50.696;4.396;2023-07-02T08:11:36;19.70;99.90
23100;DHT22;53791;50.696;4.396;2023-07-02T08:14:03;19.70;99.90
23100;DHT22;53791;50.696;4.396;2023-07-02T08:16:31;19.80;99.90
23100;DHT22;53791;50.696;4.396;2023-07-02T08:18:58;19.70;99.90
23100;DHT22;53791;50.696;4.396;2023-07-02T08:21:26;19.80;99.90
23100;DHT22;53791;50.696;4.396;2023-07-02T08:23:53;19.90;99.90
23100;DHT22;53791;50.696;4.396;2023-07-02T08:26:21;20.00;99.90
23100;DHT22;53791;50.696;4.396;2023-07-02T08:28:48;20.00;99.90
23100;DHT22;53791;50.696;4.396;2023-07-02T08:31:16;20.10;99.90
23100;DHT22;53791;50.696;4.396;2023-07-02T08:33:44;20.10;99.90
23100;DHT22;53791;50.696;4.396;2023-07-02T08:36:11;20.20;99.90
23100;DHT22;53791;50.696;4.396;2023-07-02T08:38:40;20.20;99.90
23100;DHT22;53791;50.696;4.396;2023-07-02T08:41:09;20.20;99.90
23100;DHT22;53791;50.696;4.396;2023-07-02T08:43:37;20.10;99.90
23100;DHT22;53791;50.696;4.396;2023-07-02T08:46:06;19.90;99.90
23100;DHT22;53791;50.696;4.396;2023-07-02T08:48:34;19.90;99.90
23100;DHT22;53791;50.696;4.396;2023-07-02T08:51:02;19.80;99.90
23100;DHT22;53791;50.696;4.396;2023-07-02T08:53:30;19.70;99.90
23100;DHT22;53791;50.696;4.396;2023-07-02T08:56:03;19.70;99.90
23100;DHT22;53791;50.696;4.396;2023-07-02T08:58:31;19.70;99.90
23100;DHT22;53791;50.696;4.396;2023-07-02T09:01:12;19.60;99.90
23100;DHT22;53791;50.696;4.396;2023-07-02T09:03:41;19.60;99.90
23100;DHT22;53791;50.696;4.396;2023-07-02T09:06:10;19.70;99.90
23100;DHT22;53791;50.696;4.396;2023-07-02T09:08:38;19.60;99.90
23100;DHT22;53791;50.696;4.396;2023-07-02T09:11:13;19.50;99.90
23100;DHT22;53791;50.696;4.396;2023-07-02T09:13:50;19.50;99.90
23100;DHT22;53791;50.696;4.396;2023-07-02T09:16:28;19.50;99.90
23100;DHT22;53791;50.696;4.396;2023-07-02T09:19:03;19.60;99.90
23100;DHT22;53791;50.696;4.396;2023-07-02T09:21:43;19.50;99.90
23100;DHT22;53791;50.696;4.396;2023-07-02T09:24:18;19.40;99.90
23100;DHT22;53791;50.696;4.396;2023-07-02T09:26:48;19.40;99.90
23100;DHT22;53791;50.696;4.396;2023-07-02T09:29:30;19.40;99.90
23100;DHT22;53791;50.696;4.396;2023-07-02T09:32:02;19.50;99.90
23100;DHT22;53791;50.696;4.396;2023-07-02T09:34:32;19.60;99.90
23100;DHT22;53791;50.696;4.396;2023-07-02T09:37:00;19.60;99.90
23100;DHT22;53791;50.696;4.396;2023-07-02T09:39:30;19.60;99.90
23100;DHT22;53791;50.696;4.396;2023-07-02T09:41:59;19.60;99.90
23100;DHT22;53791;50.696;4.396;2023-07-02T09:44:31;19.60;99.90
23100;DHT22;53791;50.696;4.396;2023-07-02T09:47:06;19.60;99.90
23100;DHT22;53791;50.696;4.396;2023-07-02T09:49:35;19.70;99.90
23100;DHT22;53791;50.696;4.396;2023-07-02T09:52:08;19.60;99.90
23100;DHT22;53791;50.696;4.396;2023-07-02T09:54:36;19.70;99.90
23100;DHT22;53791;50.696;4.396;2023-07-02T09:57:04;19.60;99.90
23100;DHT22;53791;50.696;4.396;2023-07-02T09:59:35;19.60;99.90
23100;DHT22;53791;50.696;4.396;2023-07-02T10:02:03;19.60;99.90
23100;DHT22;53791;50.696;4.396;2023-07-02T10:04:47;19.60;99.90
23100;DHT22;53791;50.696;4.396;2023-07-02T10:07:27;19.70;99.90
23100;DHT22;53791;50.696;4.396;2023-07-02T10:09:55;19.60;99.90
23100;DHT22;53791;50.696;4.396;2023-07-02T10:12:24;19.60;99.90
23100;DHT22;53791;50.696;4.396;2023-07-02T10:14:56;19.60;99.90
23100;DHT22;53791;50.696;4.396;2023-07-02T10:17:31;19.60;99.90
23100;DHT22;53791;50.696;4.396;2023-07-02T10:20:05;19.70;99.90
23100;DHT22;53791;50.696;4.396;2023-07-02T10:22:44;19.80;99.90
23100;DHT22;53791;50.696;4.396;2023-07-02T10:25:11;19.90;99.90
23100;DHT22;53791;50.696;4.396;2023-07-02T10:27:41;20.00;99.90
23100;DHT22;53791;50.696;4.396;2023-07-02T10:30:10;20.10;99.90
23100;DHT22;53791;50.696;4.396;2023-07-02T10:32:38;20.10;99.90
23100;DHT22;53791;50.696;4.396;2023-07-02T10:35:18;20.20;99.90
23100;DHT22;53791;50.696;4.396;2023-07-02T10:37:46;20.40;99.90
23100;DHT22;53791;50.696;4.396;2023-07-02T10:40:13;20.40;99.90
23100;DHT22;53791;50.696;4.396;2023-07-02T10:42:53;20.50;99.90
23100;DHT22;53791;50.696;4.396;2023-07-02T10:45:17;20.50;99.90
23100;DHT22;53791;50.696;4.396;2023-07-02T10:47:45;20.50;99.90
23100;DHT22;53791;50.696;4.396;2023-07-02T10:50:22;20.40;99.90
23100;DHT22;53791;50.696;4.396;2023-07-02T10:52:47;20.50;99.90
23100;DHT22;53791;50.696;4.396;2023-07-02T10:55:25;20.70;99.90
23100;DHT22;53791;50.696;4.396;2023-07-02T10:58:05;20.90;99.90
23100;DHT22;53791;50.696;4.396;2023-07-02T11:00:42;21.00;99.90
23100;DHT22;53791;50.696;4.396;2023-07-02T11:03:03;20.90;99.90
23100;DHT22;53791;50.696;4.396;2023-07-02T11:05:31;21.00;99.90
23100;DHT22;53791;50.696;4.396;2023-07-02T11:08:07;21.00;99.90
23100;DHT22;53791;50.696;4.396;2023-07-02T11:10:29;21.00;99.90
23100;DHT22;53791;50.696;4.396;2023-07-02T11:12:56;21.10;99.90
23100;DHT22;53791;50.696;4.396;2023-07-02T11:15:24;21.30;99.90
23100;DHT22;53791;50.696;4.396;2023-07-02T11:17:51;21.30;99.90
23100;DHT22;53791;50.696;4.396;2023-07-02T11:20:19;21.40;99.90
23100;DHT22;53791;50.696;4.396;2023-07-02T11:22:46;21.30;99.90
23100;DHT22;53791;50.696;4.396;2023-07-02T11:25:18;21.30;99.90
23100;DHT22;53791;50.696;4.396;2023-07-02T11:27:49;21.40;99.90
23100;DHT22;53791;50.696;4.396;2023-07-02T11:30:16;21.40;99.90
23100;DHT22;53791;50.696;4.396;2023-07-02T11:32:53;21.30;99.90
23100;DHT22;53791;50.696;4.396;2023-07-02T11:35:16;21.30;99.90
23100;DHT22;53791;50.696;4.396;2023-07-02T11:37:44;21.10;99.90
23100;DHT22;53791;50.696;4.396;2023-07-02T11:40:13;20.90;99.90
23100;DHT22;53791;50.696;4.396;2023-07-02T11:42:40;20.80;99.90
23100;DHT22;53791;50.696;4.396;2023-07-02T11:45:08;20.80;99.90
23100;DHT22;53791;50.696;4.396;2023-07-02T11:47:38;20.70;99.90
23100;DHT22;53791;50.696;4.396;2023-07-02T11:50:06;20.70;99.90
23100;DHT22;53791;50.696;4.396;2023-07-02T11:52:33;20.80;99.90
23100;DHT22;53791;50.696;4.396;2023-07-02T11:55:01;21.00;99.90
23100;DHT22;53791;50.696;4.396;2023-07-02T11:57:28;21.30;99.90
23100;DHT22;53791;50.696;4.396;2023-07-02T11:59:56;21.40;99.90
23100;DHT22;53791;50.696;4.396;2023-07-02T12:02:24;21.60;99.90
23100;DHT22;53791;50.696;4.396;2023-07-02T12:04:51;21.70;99.90
23100;DHT22;53791;50.696;4.396;2023-07-02T12:07:19;21.90;99.90
23100;DHT22;53791;50.696;4.396;2023-07-02T12:09:46;22.00;99.90
23100;DHT22;53791;50.696;4.396;2023-07-02T12:12:14;22.10;99.90
23100;DHT22;53791;50.696;4.396;2023-07-02T12:14:41;22.00;99.90
23100;DHT22;53791;50.696;4.396;2023-07-02T12:17:10;22.00;99.90
23100;DHT22;53791;50.696;4.396;2023-07-02T12:19:40;22.10;99.90
23100;DHT22;53791;50.696;4.396;2023-07-02T12:22:08;22.10;99.90
23100;DHT22;53791;50.696;4.396;2023-07-02T12:24:35;22.00;99.90
23100;DHT22;53791;50.696;4.396;2023-07-02T12:27:03;21.90;99.90
23100;DHT22;53791;50.696;4.396;2023-07-02T12:29:31;21.90;99.90
23100;DHT22;53791;50.696;4.396;2023-07-02T12:31:58;21.70;99.90
23100;DHT22;53791;50.696;4.396;2023-07-02T12:34:26;21.70;99.90
23100;DHT22;53791;50.696;4.396;2023-07-02T12:36:55;21.60;99.90
23100;DHT22;53791;50.696;4.396;2023-07-02T12:39:22;21.70;99.90
23100;DHT22;53791;50.696;4.396;2023-07-02T12:41:50;21.70;99.90
23100;DHT22;53791;50.696;4.396;2023-07-02T12:44:18;21.70;99.90
23100;DHT22;53791;50.696;4.396;2023-07-02T12:46:45;21.80;99.90
23100;DHT22;53791;50.696;4.396;2023-07-02T12:49:13;21.90;99.90
23100;DHT22;53791;50.696;4.396;2023-07-02T12:51:40;22.00;99.90
23100;DHT22;53791;50.696;4.396;2023-07-02T12:54:08;22.00;99.90
23100;DHT22;53791;50.696;4.396;2023-07-02T12:56:35;22.00;99.90
23100;DHT22;53791;50.696;4.396;2023-07-02T12:59:03;22.20;99.90
23100;DHT22;53791;50.696;4.396;2023-07-02T13:01:30;22.40;99.90
23100;DHT22;53791;50.696;4.396;2023-07-02T13:03:58;22.70;99.90
23100;DHT22;53791;50.696;4.396;2023-07-02T13:06:26;22.70;99.90
23100;DHT22;53791;50.696;4.396;2023-07-02T13:08:54;22.80;99.90
23100;DHT22;53791;50.696;4.396;2023-07-02T13:11:22;23.00;99.90
23100;DHT22;53791;50.696;4.396;2023-07-02T13:13:49;23.10;99.90
23100;DHT22;53791;50.696;4.396;2023-07-02T13:16:17;23.10;99.90
23100;DHT22;53791;50.696;4.396;2023-07-02T13:18:44;23.10;99.90
23100;DHT22;53791;50.696;4.396;2023-07-02T13:21:12;22.90;99.90
23100;DHT22;53791;50.696;4.396;2023-07-02T13:23:39;22.60;99.90
23100;DHT22;53791;50.696;4.396;2023-07-02T13:26:07;22.60;99.90
23100;DHT22;53791;50.696;4.396;2023-07-02T13:28:34;22.70;99.90
23100;DHT22;53791;50.696;4.396;2023-07-02T13:31:02;22.80;99.90
23100;DHT22;53791;50.696;4.396;2023-07-02T13:33:29;22.80;99.90
23100;DHT22;53791;50.696;4.396;2023-07-02T13:35:58;22.80;99.90
23100;DHT22;53791;50.696;4.396;2023-07-02T13:38:25;22.80;99.90
23100;DHT22;53791;50.696;4.396;2023-07-02T13:40:53;22.80;99.90
23100;DHT22;53791;50.696;4.396;2023-07-02T13:43:20;22.70;99.90
23100;DHT22;53791;50.696;4.396;2023-07-02T13:45:48;22.80;99.90
23100;DHT22;53791;50.696;4.396;2023-07-02T13:48:15;22.90;99.90
23100;DHT22;53791;50.696;4.396;2023-07-02T13:50:43;23.10;99.90
23100;DHT22;53791;50.696;4.396;2023-07-02T13:53:10;23.30;99.90
23100;DHT22;53791;50.696;4.396;2023-07-02T13:55:38;23.40;99.90
23100;DHT22;53791;50.696;4.396;2023-07-02T13:58:05;23.50;99.90
23100;DHT22;53791;50.696;4.396;2023-07-02T14:00:33;23.50;99.90
23100;DHT22;53791;50.696;4.396;2023-07-02T14:03:00;23.60;99.90
23100;DHT22;53791;50.696;4.396;2023-07-02T14:05:28;23.60;99.90
23100;DHT22;53791;50.696;4.396;2023-07-02T14:07:56;23.70;99.90
23100;DHT22;53791;50.696;4.396;2023-07-02T14:10:23;23.80;99.90
23100;DHT22;53791;50.696;4.396;2023-07-02T14:12:51;23.90;99.90
23100;DHT22;53791;50.696;4.396;2023-07-02T14:15:18;23.80;99.90
23100;DHT22;53791;50.696;4.396;2023-07-02T14:17:46;23.70;99.90
23100;DHT22;53791;50.696;4.396;2023-07-02T14:20:14;23.70;99.90
23100;DHT22;53791;50.696;4.396;2023-07-02T14:22:41;23.70;99.90
23100;DHT22;53791;50.696;4.396;2023-07-02T14:25:09;23.80;99.90
23100;DHT22;53791;50.696;4.396;2023-07-02T14:27:37;23.70;99.90
23100;DHT22;53791;50.696;4.396;2023-07-02T14:30:06;23.60;99.90
23100;DHT22;53791;50.696;4.396;2023-07-02T14:32:34;23.50;99.90
23100;DHT22;53791;50.696;4.396;2023-07-02T14:35:03;23.60;99.90
23100;DHT22;53791;50.696;4.396;2023-07-02T14:37:31;23.80;99.90
23100;DHT22;53791;50.696;4.396;2023-07-02T14:39:58;23.80;99.90
23100;DHT22;53791;50.696;4.396;2023-07-02T14:42:26;23.70;99.90
23100;DHT22;53791;50.696;4.396;2023-07-02T14:44:53;23.50;99.90
23100;DHT22;53791;50.696;4.396;2023-07-02T14:47:21;23.30;99.90
23100;DHT22;53791;50.696;4.396;2023-07-02T14:49:48;23.30;99.90
23100;DHT22;53791;50.696;4.396;2023-07-02T14:52:16;23.10;99.90
23100;DHT22;53791;50.696;4.396;2023-07-02T14:54:45;23.10;99.90
23100;DHT22;53791;50.696;4.396;2023-07-02T14:57:13;23.10;99.90
23100;DHT22;53791;50.696;4.396;2023-07-02T14:59:42;23.00;99.90
23100;DHT22;53791;50.696;4.396;2023-07-02T15:02:14;22.80;99.90
23100;DHT22;53791;50.696;4.396;2023-07-02T15:04:41;22.90;99.90
23100;DHT22;53791;50.696;4.396;2023-07-02T15:07:09;23.00;99.90
23100;DHT22;53791;50.696;4.396;2023-07-02T15:09:36;23.30;99.90
23100;DHT22;53791;50.696;4.396;2023-07-02T15:12:04;23.20;99.90
23100;DHT22;53791;50.696;4.396;2023-07-02T15:14:31;23.30;99.90
23100;DHT22;53791;50.696;4.396;2023-07-02T15:16:59;23.30;99.90
23100;DHT22;53791;50.696;4.396;2023-07-02T15:19:28;23.30;99.90
23100;DHT22;53791;50.696;4.396;2023-07-02T15:21:56;23.30;99.90
23100;DHT22;53791;50.696;4.396;2023-07-02T15:24:23;23.10;99.90
23100;DHT22;53791;50.696;4.396;2023-07-02T15:26:51;22.80;99.90
23100;DHT22;53791;50.696;4.396;2023-07-02T15:29:18;22.80;99.90
23100;DHT22;53791;50.696;4.396;2023-07-02T15:31:46;22.90;99.90
23100;DHT22;53791;50.696;4.396;2023-07-02T15:34:14;23.10;99.90
23100;DHT22;53791;50.696;4.396;2023-07-02T15:36:43;23.30;99.90
23100;DHT22;53791;50.696;4.396;2023-07-02T15:39:11;23.00;99.90